Time;durP1;ratioP1;P1;durP2;ratioP2;P2;SDS_P1;SDS_P2;PMS_P1;PMS_P2;Temp;Humidity;BMP_temperature;BMP_pressure;BME280_temperature;BME280_humidity;BME280_pressure;Samples;Min_cycle;Max_cycle;Signal;HPM_P1;HPM_P2
2023/03/17 00:00:07;;;;;;;7.97;4.63;;;;;;;7.46;75.60;100100.38;5073306;28;20054;-66
2023/03/17 00:02:33;;;;;;;6.32;4.40;;;;;;;7.42;75.58;100106.88;5073479;28;20199;-70
2023/03/17 00:04:58;;;;;;;4.78;3.65;;;;;;;7.42;75.96;100116.59;5073900;28;20361;-66
2023/03/17 00:07:24;;;;;;;6.18;3.85;;;;;;;7.27;76.25;100102.91;5074781;28;20090;-70
2023/03/17 00:09:49;;;;;;;6.28;3.88;;;;;;;7.33;76.07;100112.94;5074225;28;20037;-70
2023/03/17 00:12:16;;;;;;;5.78;4.45;;;;;;;7.45;75.68;100119.78;5074953;28;20043;-70
2023/03/17 00:14:43;;;;;;;5.72;4.28;;;;;;;7.44;75.62;100120.75;5074328;28;20242;-70
2023/03/17 00:17:12;;;;;;;6.93;4.50;;;;;;;7.47;75.56;100117.84;5070897;28;20032;-67
2023/03/17 00:19:40;;;;;;;4.75;3.67;;;;;;;7.46;74.89;100116.19;5074663;28;20047;-70
2023/03/17 00:22:12;;;;;;;6.82;4.40;;;;;;;7.45;75.37;100121.59;5073798;28;20087;-66
2023/03/17 00:24:37;;;;;;;6.40;4.15;;;;;;;7.55;74.76;100122.47;5074304;28;20033;-66
2023/03/17 00:27:12;;;;;;;5.68;4.15;;;;;;;7.51;75.13;100126.34;5072781;28;20223;-71
2023/03/17 00:29:38;;;;;;;4.65;3.55;;;;;;;7.45;74.47;100124.22;5074031;28;20578;-70
2023/03/17 00:32:05;;;;;;;6.43;3.92;;;;;;;7.42;74.71;100121.84;5071028;28;20047;-70
2023/03/17 00:34:31;;;;;;;5.57;4.13;;;;;;;7.30;76.13;100126.38;5073666;28;20214;-70
2023/03/17 00:36:56;;;;;;;6.80;4.75;;;;;;;7.32;75.51;100114.75;5073314;28;20040;-66
2023/03/17 00:39:24;;;;;;;5.32;3.72;;;;;;;7.34;75.73;100114.63;5072140;28;20094;-71
2023/03/17 00:41:49;;;;;;;5.65;3.60;;;;;;;7.34;76.26;100117.25;5072515;28;20103;-71
2023/03/17 00:44:14;;;;;;;6.13;4.20;;;;;;;7.41;75.57;100122.81;5072934;28;20040;-70
2023/03/17 00:46:40;;;;;;;6.82;3.90;;;;;;;7.34;75.86;100117.25;5072075;28;20323;-68
2023/03/17 00:49:12;;;;;;;5.47;3.67;;;;;;;7.36;75.22;100118.78;5073835;28;20036;-65
2023/03/17 00:51:38;;;;;;;6.25;3.90;;;;;;;7.37;75.36;100119.63;5072707;28;20041;-70
2023/03/17 00:54:03;;;;;;;6.25;4.07;;;;;;;7.35;75.92;100117.13;5070577;28;20064;-66
2023/03/17 00:56:29;;;;;;;4.88;4.10;;;;;;;7.32;75.26;100127.09;5072669;28;20072;-70
2023/03/17 00:58:55;;;;;;;4.93;3.85;;;;;;;7.25;76.02;100128.53;5071147;28;20052;-70
2023/03/17 01:01:20;;;;;;;5.78;3.88;;;;;;;7.26;76.54;100127.59;5070702;28;20245;-70
2023/03/17 01:03:46;;;;;;;4.65;4.00;;;;;;;7.28;76.39;100131.78;5071350;28;20032;-70
2023/03/17 01:06:13;;;;;;;5.00;3.63;;;;;;;7.43;76.08;100134.06;5073134;28;20032;-65
2023/03/17 01:08:39;;;;;;;6.07;3.65;;;;;;;7.45;75.39;100138.22;5071336;28;20024;-70
2023/03/17 01:11:06;;;;;;;4.38;3.30;;;;;;;7.47;76.00;100133.66;5072889;28;20096;-66
2023/03/17 01:13:33;;;;;;;4.95;3.67;;;;;;;7.48;75.52;100139.78;5072038;28;20052;-70
2023/03/17 01:15:58;;;;;;;5.18;3.70;;;;;;;7.44;75.28;100144.47;5071387;28;20055;-67
2023/03/17 01:18:24;;;;;;;4.13;3.67;;;;;;;7.41;75.93;100141.25;5070495;28;20032;-66
2023/03/17 01:20:50;;;;;;;4.68;3.67;;;;;;;7.32;76.53;100148.16;5071048;28;20408;-66
2023/03/17 01:23:16;;;;;;;5.85;3.30;;;;;;;7.38;76.19;100146.81;5072666;28;20044;-70
2023/03/17 01:25:43;;;;;;;4.88;3.45;;;;;;;7.53;75.49;100151.59;5070314;28;20096;-67
2023/03/17 01:28:19;;;;;;;4.10;3.45;;;;;;;7.60;74.62;100152.72;5070900;28;20052;-63
2023/03/17 01:30:45;;;;;;;5.10;3.63;;;;;;;7.68;74.21;100152.06;5071308;28;20040;-70
2023/03/17 01:33:12;;;;;;;4.80;3.35;;;;;;;7.63;74.06;100152.44;5072640;28;20135;-67
2023/03/17 01:35:37;;;;;;;4.35;3.03;;;;;;;7.59;73.99;100150.22;5071917;28;20041;-65
2023/03/17 01:38:04;;;;;;;4.55;3.25;;;;;;;7.56;74.23;100155.75;5070985;28;20103;-67
2023/03/17 01:40:42;;;;;;;5.25;3.08;;;;;;;7.48;74.55;100163.47;5071771;28;20056;-70
2023/03/17 01:43:08;;;;;;;3.20;2.88;;;;;;;7.58;74.42;100159.09;5072479;28;20303;-65
2023/03/17 01:46:11;;;;;;;3.95;3.35;;;;;;;7.58;74.39;100162.56;5071403;28;20108;-66
2023/03/17 01:48:52;;;;;;;3.78;2.80;;;;;;;7.61;74.32;100154.38;5071374;28;20040;-65
2023/03/17 01:51:37;;;;;;;4.47;3.00;;;;;;;7.59;73.90;100160.75;5070676;28;20504;-69
2023/03/17 01:54:29;;;;;;;5.20;3.17;;;;;;;7.59;74.11;100160.75;5072267;28;20040;-70
2023/03/17 01:56:59;;;;;;;4.57;2.90;;;;;;;7.59;74.52;100163.41;5051392;28;20044;-65
2023/03/17 01:59:32;;;;;;;3.58;2.67;;;;;;;7.60;73.60;100173.81;5071752;28;20346;-71
2023/03/17 02:02:04;;;;;;;4.05;3.03;;;;;;;7.55;73.69;100167.25;5071443;28;20326;-67
2023/03/17 02:04:30;;;;;;;4.05;2.88;;;;;;;7.54;73.91;100168.22;5072916;28;20324;-70
2023/03/17 02:06:56;;;;;;;3.47;2.75;;;;;;;7.53;74.09;100175.28;5069252;28;20178;-70
2023/03/17 02:09:22;;;;;;;3.65;2.78;;;;;;;7.62;74.16;100176.31;5071809;28;20345;-66
2023/03/17 02:11:48;;;;;;;4.07;2.80;;;;;;;7.63;73.40;100176.16;5070971;28;20117;-65
2023/03/17 02:14:13;;;;;;;4.43;2.97;;;;;;;7.68;73.38;100176.59;5072472;28;20039;-67
2023/03/17 02:16:39;;;;;;;3.90;3.05;;;;;;;7.63;72.97;100181.44;5071525;28;20313;-70
2023/03/17 02:19:04;;;;;;;4.63;3.20;;;;;;;7.66;73.18;100182.97;5071524;28;20082;-66
2023/03/17 02:22:05;;;;;;;3.80;2.78;;;;;;;7.67;73.19;100182.00;5071907;28;20674;-66
2023/03/17 02:24:32;;;;;;;4.28;2.92;;;;;;;7.59;73.12;100190.56;5063086;28;20044;-69
2023/03/17 02:27:02;;;;;;;5.35;3.10;;;;;;;7.68;72.51;100188.94;5071925;28;20067;-68
2023/03/17 02:29:33;;;;;;;4.35;3.08;;;;;;;7.73;72.26;100185.91;5071174;28;20342;-66
2023/03/17 02:31:59;;;;;;;7.00;4.03;;;;;;;7.68;71.73;100189.78;5072033;28;20103;-71
2023/03/17 02:34:25;;;;;;;5.68;3.33;;;;;;;7.78;72.26;100187.19;5072098;28;20047;-70
2023/03/17 02:36:50;;;;;;;4.28;2.90;;;;;;;7.80;71.41;100193.16;5071127;28;20040;-65
2023/03/17 02:39:16;;;;;;;3.78;2.70;;;;;;;7.76;71.51;100196.19;5071340;28;20048;-69
2023/03/17 02:41:42;;;;;;;4.45;2.75;;;;;;;7.75;71.40;100199.81;5071901;28;20028;-69
2023/03/17 02:44:08;;;;;;;3.63;2.63;;;;;;;7.74;71.73;100195.50;5070270;28;20330;-70
2023/03/17 02:46:33;;;;;;;3.72;2.50;;;;;;;7.80;71.01;100198.44;5070687;28;20036;-65
2023/03/17 02:48:59;;;;;;;3.83;2.67;;;;;;;7.76;71.35;100207.56;5071661;28;20032;-69
2023/03/17 02:51:25;;;;;;;4.53;2.88;;;;;;;7.82;70.90;100211.47;5071027;28;20025;-69
2023/03/17 02:53:51;;;;;;;3.67;2.50;;;;;;;7.88;70.67;100211.78;5071190;28;20044;-64
2023/03/17 02:56:16;;;;;;;3.67;2.42;;;;;;;7.94;70.62;100219.16;5070648;28;20033;-69
2023/03/17 02:58:42;;;;;;;3.75;2.40;;;;;;;7.95;69.91;100215.56;5071082;28;20314;-65
2023/03/17 03:01:08;;;;;;;3.38;2.38;;;;;;;7.92;69.73;100222.91;5068951;28;20033;-66
2023/03/17 03:03:33;;;;;;;4.03;2.63;;;;;;;7.94;69.95;100223.59;5074452;28;20060;-70
2023/03/17 03:05:59;;;;;;;4.95;2.40;;;;;;;7.98;69.96;100227.63;5074655;28;20032;-70
2023/03/17 03:08:25;;;;;;;3.15;2.58;;;;;;;7.99;69.44;100230.13;5075258;28;20032;-69
2023/03/17 03:10:51;;;;;;;3.78;2.10;;;;;;;7.99;69.68;100227.50;5073674;28;20221;-65
2023/03/17 03:13:16;;;;;;;3.45;2.42;;;;;;;8.12;69.55;100226.44;5075414;28;20029;-66
2023/03/17 03:15:42;;;;;;;4.45;2.75;;;;;;;8.16;68.49;100231.31;5074483;28;20055;-65
2023/03/17 03:18:08;;;;;;;2.75;2.15;;;;;;;8.15;68.74;100237.53;5074627;28;20028;-65
2023/03/17 03:20:35;;;;;;;3.03;2.13;;;;;;;8.12;68.99;100234.34;5075458;28;20032;-65
2023/03/17 03:23:00;;;;;;;3.88;2.40;;;;;;;8.13;68.53;100236.84;5074517;28;20036;-69
2023/03/17 03:25:26;;;;;;;3.25;2.10;;;;;;;8.17;68.45;100237.41;5075090;28;20036;-70
2023/03/17 03:27:51;;;;;;;4.22;2.50;;;;;;;8.19;67.83;100246.84;5072534;28;20237;-65
2023/03/17 03:30:17;;;;;;;3.55;2.10;;;;;;;8.26;67.69;100239.25;5072615;28;20048;-69
2023/03/17 03:32:42;;;;;;;2.28;1.98;;;;;;;8.30;67.82;100241.47;5074168;28;20711;-70
2023/03/17 03:35:08;;;;;;;2.40;1.95;;;;;;;8.26;67.35;100236.59;5073892;28;20108;-65
2023/03/17 03:37:33;;;;;;;3.20;2.00;;;;;;;8.28;67.10;100239.94;5074804;28;20090;-70
2023/03/17 03:39:59;;;;;;;2.10;1.70;;;;;;;8.26;66.85;100234.81;5074079;28;20188;-70
2023/03/17 03:42:25;;;;;;;3.15;2.08;;;;;;;8.22;67.07;100245.75;5075035;28;20035;-70
2023/03/17 03:44:51;;;;;;;2.20;2.00;;;;;;;8.18;67.30;100247.00;5071836;28;20446;-65
2023/03/17 03:47:17;;;;;;;2.97;1.65;;;;;;;8.24;67.36;100244.66;5075479;28;20148;-63
2023/03/17 03:49:42;;;;;;;3.03;2.00;;;;;;;8.26;67.42;100249.78;5073174;28;20047;-70
2023/03/17 03:52:08;;;;;;;3.33;1.92;;;;;;;8.29;67.09;100242.44;5075134;28;20043;-64
2023/03/17 03:54:33;;;;;;;2.80;2.05;;;;;;;8.16;67.15;100241.03;5071536;28;20463;-69
2023/03/17 03:56:59;;;;;;;3.90;2.28;;;;;;;8.20;67.37;100239.78;5073165;28;20035;-70
2023/03/17 03:59:24;;;;;;;5.90;3.30;;;;;;;8.30;67.08;100246.75;5073499;28;20051;-69
2023/03/17 04:01:49;;;;;;;2.10;1.88;;;;;;;8.34;66.26;100252.66;5068669;28;20036;-65
2023/03/17 04:04:15;;;;;;;3.20;2.80;;;;;;;8.32;66.65;100252.75;5061294;28;20044;-66
2023/03/17 04:06:40;;;;;;;2.97;2.40;;;;;;;8.35;66.58;100256.97;5061094;28;20394;-66
2023/03/17 04:09:06;;;;;;;4.05;2.60;;;;;;;8.38;66.26;100263.78;5064543;28;20035;-69
2023/03/17 04:11:32;;;;;;;3.30;2.33;;;;;;;8.41;66.14;100266.13;5061750;28;20033;-70
2023/03/17 04:13:57;;;;;;;4.50;2.67;;;;;;;8.47;65.71;100262.97;5062460;28;20067;-65
2023/03/17 04:16:23;;;;;;;6.53;3.80;;;;;;;8.42;65.44;100267.81;5061566;28;20291;-65
2023/03/17 04:18:48;;;;;;;4.80;3.97;;;;;;;8.39;65.83;100273.34;5060655;28;20045;-65
2023/03/17 04:21:17;;;;;;;6.10;3.83;;;;;;;8.49;65.85;100271.56;5060775;28;20037;-70
2023/03/17 04:23:42;;;;;;;6.10;4.22;;;;;;;8.53;65.39;100278.25;5064131;28;20346;-69
2023/03/17 04:26:10;;;;;;;4.88;3.65;;;;;;;8.53;65.41;100280.91;5060883;28;20071;-69
2023/03/17 04:28:35;;;;;;;5.28;3.83;;;;;;;8.54;65.31;100293.13;5060197;28;20448;-69
2023/03/17 04:31:01;;;;;;;4.68;3.50;;;;;;;8.50;65.26;100289.09;5064917;28;20041;-70
2023/03/17 04:33:26;;;;;;;6.28;3.42;;;;;;;8.50;65.00;100289.91;5066039;28;20032;-69
2023/03/17 04:35:51;;;;;;;5.90;3.35;;;;;;;8.50;65.31;100302.28;5068045;28;20047;-63
2023/03/17 04:38:17;;;;;;;5.68;4.13;;;;;;;8.57;64.93;100306.03;5064059;28;20040;-63
2023/03/17 04:40:42;;;;;;;13.18;4.68;;;;;;;8.58;64.94;100307.72;5062791;28;20044;-67
2023/03/17 04:43:09;;;;;;;10.35;4.72;;;;;;;8.64;64.66;100309.81;5062504;28;20368;-67
2023/03/17 04:45:35;;;;;;;7.93;4.30;;;;;;;8.69;64.21;100312.03;5066080;28;20402;-67
2023/03/17 04:48:01;;;;;;;7.22;4.32;;;;;;;8.69;64.03;100314.69;5064813;28;20318;-68
2023/03/17 04:50:26;;;;;;;6.30;4.72;;;;;;;8.65;63.79;100319.41;5062735;28;20033;-64
2023/03/17 04:52:51;;;;;;;5.72;4.13;;;;;;;8.57;64.40;100316.59;5064318;28;20036;-64
2023/03/17 04:55:17;;;;;;;7.15;4.72;;;;;;;8.55;64.78;100319.38;5062490;28;20033;-65
2023/03/17 04:57:43;;;;;;;4.75;3.15;;;;;;;8.56;64.45;100320.22;5061864;28;20040;-70
2023/03/17 05:00:10;;;;;;;4.13;3.00;;;;;;;8.60;64.12;100318.97;5061464;28;20040;-65
2023/03/17 05:02:37;;;;;;;3.92;2.92;;;;;;;8.67;64.28;100322.75;5063488;28;20071;-65
2023/03/17 05:05:03;;;;;;;5.80;4.10;;;;;;;8.71;64.45;100325.94;5060441;28;20033;-69
2023/03/17 05:07:29;;;;;;;8.35;4.45;;;;;;;8.78;64.34;100330.53;5064572;28;20097;-70
2023/03/17 05:09:55;;;;;;;8.68;5.07;;;;;;;8.86;63.85;100337.78;5063777;28;20044;-69
2023/03/17 05:12:21;;;;;;;8.60;4.80;;;;;;;8.80;63.94;100333.88;5063096;28;20100;-64
2023/03/17 05:14:46;;;;;;;8.27;5.57;;;;;;;8.83;63.84;100340.69;5061876;28;20274;-69
2023/03/17 05:17:12;;;;;;;10.38;6.55;;;;;;;8.84;64.11;100350.28;5061602;28;20044;-69
2023/03/17 05:19:38;;;;;;;7.93;4.47;;;;;;;8.86;64.59;100345.72;5064671;28;20064;-64
2023/03/17 05:22:04;;;;;;;4.65;3.28;;;;;;;9.00;64.16;100350.59;5063996;28;20037;-64
2023/03/17 05:24:30;;;;;;;8.52;4.50;;;;;;;9.01;63.60;100354.91;5072481;28;20055;-62
2023/03/17 05:26:56;;;;;;;7.60;4.70;;;;;;;8.96;63.99;100362.41;5078025;28;20095;-63
2023/03/17 05:29:22;;;;;;;6.25;4.70;;;;;;;8.99;63.88;100361.28;5078413;28;20043;-67
2023/03/17 05:31:47;;;;;;;5.50;3.95;;;;;;;8.95;64.06;100364.22;5077673;28;20055;-65
2023/03/17 05:34:14;;;;;;;7.55;4.95;;;;;;;8.89;64.47;100367.41;5077501;28;20048;-69
2023/03/17 05:36:39;;;;;;;6.03;4.47;;;;;;;8.81;64.40;100372.53;5077569;28;20040;-65
2023/03/17 05:39:04;;;;;;;5.80;4.40;;;;;;;8.87;64.46;100364.06;5076478;28;20227;-69
2023/03/17 05:41:30;;;;;;;8.65;4.78;;;;;;;8.83;64.28;100372.38;5077925;28;20360;-67
2023/03/17 05:43:55;;;;;;;7.63;4.72;;;;;;;8.94;64.15;100370.47;5077423;28;20044;-67
2023/03/17 05:46:21;;;;;;;4.70;3.80;;;;;;;8.89;64.61;100374.47;5077065;28;20021;-68
2023/03/17 05:48:47;;;;;;;6.80;4.03;;;;;;;8.99;64.28;100377.97;5076589;28;20036;-68
2023/03/17 05:51:13;;;;;;;6.57;4.03;;;;;;;9.10;63.89;100375.22;5077015;28;20059;-63
2023/03/17 05:53:38;;;;;;;7.07;4.40;;;;;;;9.14;63.24;100386.34;5077159;28;20055;-67
2023/03/17 05:56:05;;;;;;;5.45;4.35;;;;;;;9.16;63.02;100379.13;5076400;28;20292;-68
2023/03/17 05:58:31;;;;;;;7.13;5.18;;;;;;;9.13;63.24;100384.66;5077221;28;20094;-68
2023/03/17 06:00:56;;;;;;;7.25;4.78;;;;;;;9.30;62.98;100384.00;5077444;28;20342;-63
2023/03/17 06:03:22;;;;;;;4.88;3.15;;;;;;;9.19;62.94;100387.59;5076587;28;20330;-63
2023/03/17 06:05:48;;;;;;;4.97;3.50;;;;;;;9.13;62.95;100385.50;5077600;28;20039;-66
2023/03/17 06:08:13;;;;;;;5.10;3.88;;;;;;;9.06;62.49;100396.75;5076971;28;20050;-63
2023/03/17 06:10:40;;;;;;;4.80;3.55;;;;;;;8.96;63.33;100402.84;5077047;28;20032;-69
2023/03/17 06:13:05;;;;;;;6.38;4.32;;;;;;;8.99;63.65;100403.56;5077976;28;20043;-65
2023/03/17 06:15:32;;;;;;;4.82;3.63;;;;;;;9.02;63.17;100406.75;5076710;28;20242;-65
2023/03/17 06:17:58;;;;;;;9.10;4.38;;;;;;;8.96;63.49;100409.94;5076542;28;20032;-69
2023/03/17 06:20:24;;;;;;;6.20;4.30;;;;;;;9.08;63.69;100411.50;5076907;28;20238;-66
2023/03/17 06:22:49;;;;;;;7.20;4.97;;;;;;;9.27;63.02;100405.41;5076693;28;20133;-68
2023/03/17 06:25:15;;;;;;;6.65;4.50;;;;;;;9.45;62.28;100419.66;5077228;28;20048;-63
2023/03/17 06:27:41;;;;;;;6.05;3.72;;;;;;;9.46;61.73;100421.31;5076709;28;20037;-67
2023/03/17 06:30:07;;;;;;;3.80;3.30;;;;;;;9.52;61.69;100414.63;5076909;28;20055;-63
2023/03/17 06:32:34;;;;;;;4.55;3.20;;;;;;;9.53;61.68;100424.25;5076856;28;20090;-67
2023/03/17 06:35:00;;;;;;;6.13;3.47;;;;;;;9.55;61.42;100425.78;5076654;28;20422;-63
2023/03/17 06:37:25;;;;;;;5.93;3.88;;;;;;;9.68;61.56;100428.13;5061238;28;20028;-62
2023/03/17 06:39:51;;;;;;;4.47;3.25;;;;;;;9.72;60.92;100421.59;5065877;28;20103;-67
2023/03/17 06:42:18;;;;;;;5.45;4.03;;;;;;;9.73;60.68;100427.72;5066980;28;20033;-67
2023/03/17 06:44:44;;;;;;;6.53;4.40;;;;;;;9.81;60.85;100431.34;5066133;28;20048;-67
2023/03/17 06:47:09;;;;;;;6.40;3.55;;;;;;;9.84;60.66;100430.22;5065641;28;20033;-63
2023/03/17 06:49:35;;;;;;;5.22;3.60;;;;;;;9.77;60.35;100434.41;5065296;28;20115;-63
2023/03/17 06:52:00;;;;;;;6.35;3.83;;;;;;;9.96;60.56;100438.84;5066313;28;20422;-62
2023/03/17 06:54:26;;;;;;;4.15;3.25;;;;;;;9.93;59.53;100434.66;5064077;28;20044;-64
2023/03/17 06:56:52;;;;;;;4.15;3.33;;;;;;;9.96;59.62;100436.19;5062449;28;20025;-63
2023/03/17 06:59:20;;;;;;;5.10;3.40;;;;;;;10.05;59.62;100433.53;5066038;28;20093;-67
2023/03/17 07:01:47;;;;;;;4.15;3.33;;;;;;;10.18;59.77;100439.34;5066674;28;20071;-63
2023/03/17 07:04:13;;;;;;;6.10;4.00;;;;;;;10.38;59.08;100434.03;5063338;28;20040;-67
2023/03/17 07:06:38;;;;;;;4.15;3.45;;;;;;;10.42;58.01;100438.09;5065007;28;20044;-63
2023/03/17 07:09:04;;;;;;;6.22;4.18;;;;;;;10.59;57.07;100439.16;5065031;28;20044;-65
2023/03/17 07:11:31;;;;;;;5.20;3.35;;;;;;;10.84;56.67;100435.84;5068421;28;20052;-69
2023/03/17 07:13:57;;;;;;;4.95;3.30;;;;;;;10.85;54.59;100443.66;5067072;28;20031;-65
2023/03/17 07:16:22;;;;;;;5.15;3.28;;;;;;;10.94;55.21;100438.44;5063455;28;20045;-70
2023/03/17 07:18:48;;;;;;;3.10;2.80;;;;;;;11.23;54.62;100440.94;5064162;28;20131;-65
2023/03/17 07:21:14;;;;;;;4.65;2.83;;;;;;;11.15;54.25;100439.84;5062615;28;20037;-70
2023/03/17 07:23:40;;;;;;;3.95;3.25;;;;;;;11.30;53.83;100437.53;5062301;28;20071;-65
2023/03/17 07:26:05;;;;;;;3.95;3.17;;;;;;;11.04;54.24;100437.41;5062143;28;20036;-69
2023/03/17 07:28:30;;;;;;;3.72;2.90;;;;;;;11.18;54.16;100444.03;5062307;28;20037;-65
2023/03/17 07:30:56;;;;;;;3.38;3.00;;;;;;;11.14;52.98;100434.69;5065741;28;20036;-65
2023/03/17 07:33:23;;;;;;;3.08;2.78;;;;;;;11.24;52.02;100446.06;5066316;28;20039;-69
2023/03/17 07:35:49;;;;;;;5.10;2.58;;;;;;;11.36;50.40;100438.75;5066045;28;20093;-66
2023/03/17 07:38:17;;;;;;;3.30;3.00;;;;;;;11.55;51.36;100440.44;5064910;28;20029;-67
2023/03/17 07:40:46;;;;;;;2.88;2.53;;;;;;;11.73;50.71;100446.59;5062181;28;20048;-69
2023/03/17 07:43:12;;;;;;;2.85;2.13;;;;;;;11.71;49.69;100441.44;5063063;28;20036;-65
2023/03/17 07:45:38;;;;;;;4.25;2.95;;;;;;;11.93;49.36;100447.28;5066988;28;20072;-69
2023/03/17 07:48:05;;;;;;;2.40;1.80;;;;;;;11.85;46.46;100445.41;5066580;28;20043;-65
2023/03/17 07:50:32;;;;;;;2.92;2.00;;;;;;;11.88;45.06;100431.00;5066298;28;20071;-65
2023/03/17 07:52:57;;;;;;;1.65;1.45;;;;;;;11.77;43.61;100435.56;5062840;28;20029;-69
2023/03/17 07:55:23;;;;;;;2.53;1.77;;;;;;;11.63;42.37;100438.72;5066015;28;20045;-66
2023/03/17 07:57:49;;;;;;;2.10;1.67;;;;;;;11.15;44.36;100437.19;5064728;28;20040;-66
2023/03/17 08:00:16;;;;;;;1.73;1.48;;;;;;;10.83;44.62;100437.66;5064035;28;20041;-65
2023/03/17 08:02:41;;;;;;;1.83;1.60;;;;;;;10.94;44.91;100435.78;5062315;28;20090;-65
2023/03/17 08:05:08;;;;;;;2.45;1.75;;;;;;;11.03;44.27;100443.69;5062568;28;20104;-65
2023/03/17 08:07:36;;;;;;;2.20;1.70;;;;;;;10.87;44.92;100438.19;5063163;28;20040;-65
2023/03/17 08:10:03;;;;;;;1.92;1.60;;;;;;;11.15;45.40;100449.63;5061532;28;20032;-69
2023/03/17 08:12:28;;;;;;;2.22;1.80;;;;;;;11.36;45.15;100430.78;5063867;28;20030;-65
2023/03/17 08:14:54;;;;;;;2.10;1.90;;;;;;;12.01;43.20;100439.38;5063925;28;20095;-65
2023/03/17 08:17:19;;;;;;;3.95;2.25;;;;;;;12.67;42.09;100439.66;5061528;28;20020;-65
2023/03/17 08:19:45;;;;;;;1.88;1.60;;;;;;;13.00;39.78;100437.97;5061017;28;20051;-63
2023/03/17 08:22:11;;;;;;;1.75;1.10;;;;;;;13.28;37.90;100435.94;5067900;28;20202;-64
2023/03/17 08:24:38;;;;;;;1.50;1.10;;;;;;;13.42;37.29;100429.97;5063461;28;20041;-67
2023/03/17 08:27:04;;;;;;;3.60;1.30;;;;;;;13.52;37.25;100450.28;5062897;28;20258;-68
2023/03/17 08:29:29;;;;;;;3.53;1.35;;;;;;;13.51;36.99;100430.81;5065343;28;20041;-63
2023/03/17 08:31:56;;;;;;;1.40;1.30;;;;;;;13.61;36.76;100436.03;5061265;28;20107;-67
2023/03/17 08:34:23;;;;;;;3.72;2.20;;;;;;;13.83;36.87;100438.03;5060666;28;20326;-66
2023/03/17 08:36:49;;;;;;;3.80;1.90;;;;;;;13.80;37.42;100441.03;5065563;28;20094;-64
2023/03/17 08:39:16;;;;;;;1.65;1.55;;;;;;;13.71;37.89;100434.03;5065109;28;20079;-64
2023/03/17 08:41:42;;;;;;;2.20;1.73;;;;;;;13.68;37.20;100434.38;5065063;28;20466;-63
2023/03/17 08:44:08;;;;;;;2.25;1.88;;;;;;;13.07;36.49;100425.72;5062980;28;20075;-63
2023/03/17 08:46:34;;;;;;;2.67;1.25;;;;;;;12.02;37.71;100425.13;5061965;28;20040;-63
2023/03/17 08:49:00;;;;;;;1.52;1.33;;;;;;;11.40;38.21;100419.72;5061487;28;20421;-65
2023/03/17 08:51:29;;;;;;;3.38;1.77;;;;;;;11.24;40.14;100414.28;5064116;28;20048;-69
2023/03/17 08:53:55;;;;;;;2.20;1.52;;;;;;;11.57;40.67;100415.44;5063103;28;20319;-70
2023/03/17 08:56:21;;;;;;;2.17;1.88;;;;;;;11.90;39.78;100402.47;5061228;28;20025;-65
2023/03/17 08:58:48;;;;;;;1.90;1.40;;;;;;;12.26;38.42;100404.06;5066227;28;20052;-65
2023/03/17 09:01:15;;;;;;;2.53;1.85;;;;;;;12.43;39.80;100404.97;5064860;28;20135;-69
2023/03/17 09:03:40;;;;;;;2.20;1.70;;;;;;;12.58;38.80;100406.09;5066447;28;20043;-69
2023/03/17 09:06:08;;;;;;;1.67;1.23;;;;;;;12.77;37.31;100405.00;5061993;28;20029;-64
2023/03/17 09:08:34;;;;;;;4.63;2.55;;;;;;;13.00;36.37;100408.75;5061924;28;20372;-63
2023/03/17 09:11:02;;;;;;;2.75;1.70;;;;;;;13.27;37.48;100404.19;5072475;28;20245;-64
2023/03/17 09:13:28;;;;;;;1.90;1.50;;;;;;;13.24;35.61;100402.69;5077095;28;20040;-69
2023/03/17 09:15:53;;;;;;;1.70;1.48;;;;;;;13.34;35.83;100411.34;5077072;28;20097;-65
2023/03/17 09:18:19;;;;;;;2.00;1.45;;;;;;;13.06;36.24;100402.78;5077761;28;20032;-67
2023/03/17 09:20:45;;;;;;;2.03;1.67;;;;;;;12.76;38.14;100401.50;5077686;28;20044;-69
2023/03/17 09:23:11;;;;;;;2.20;1.65;;;;;;;12.46;37.71;100397.53;5077555;28;20020;-64
2023/03/17 09:25:38;;;;;;;2.28;1.85;;;;;;;12.52;38.01;100397.91;5077791;28;20055;-70
2023/03/17 09:28:06;;;;;;;1.00;0.90;;;;;;;12.35;37.52;100402.28;5077732;28;20032;-69
2023/03/17 09:30:31;;;;;;;1.55;1.45;;;;;;;12.09;41.52;100391.66;5077024;28;20036;-70
2023/03/17 09:32:57;;;;;;;2.88;1.83;;;;;;;12.37;37.73;100390.50;5077704;28;20060;-66
2023/03/17 09:35:24;;;;;;;2.42;1.50;;;;;;;12.63;38.87;100385.19;5077888;28;20046;-65
2023/03/17 09:37:50;;;;;;;1.73;1.38;;;;;;;12.91;37.64;100396.41;5077560;28;20323;-68
2023/03/17 09:40:18;;;;;;;2.08;1.77;;;;;;;13.02;39.70;100400.59;5078141;28;20036;-67
2023/03/17 09:42:50;;;;;;;1.85;1.65;;;;;;;13.08;38.68;100399.97;5078525;28;20051;-68
2023/03/17 09:45:30;;;;;;;2.78;1.70;;;;;;;12.93;38.58;100396.25;5078451;28;20071;-64
2023/03/17 09:48:01;;;;;;;5.25;2.95;;;;;;;12.69;38.65;100395.19;5077785;28;20036;-68
2023/03/17 09:50:34;;;;;;;3.20;1.63;;;;;;;12.65;38.59;100399.16;5077972;28;20036;-64
2023/03/17 09:53:03;;;;;;;1.90;1.50;;;;;;;12.48;37.87;100402.69;5077520;28;20061;-65
2023/03/17 09:55:31;;;;;;;13.98;3.60;;;;;;;12.59;38.50;100398.94;5077374;28;20230;-67
2023/03/17 09:57:59;;;;;;;2.90;2.00;;;;;;;12.42;38.13;100398.84;5077550;28;20107;-63
2023/03/17 10:00:28;;;;;;;4.40;2.17;;;;;;;12.57;38.35;100395.63;5076692;28;20048;-67
2023/03/17 10:02:57;;;;;;;6.47;2.95;;;;;;;12.54;37.91;100391.44;5076716;28;20139;-67
2023/03/17 10:05:26;;;;;;;3.78;2.17;;;;;;;12.52;38.88;100390.78;5077251;28;20043;-63
2023/03/17 10:08:12;;;;;;;5.13;2.63;;;;;;;12.85;36.60;100394.41;5076827;28;20032;-67
2023/03/17 10:10:55;;;;;;;1.70;1.58;;;;;;;12.89;37.75;100395.75;5076540;28;20338;-67
2023/03/17 10:13:23;;;;;;;2.03;1.63;;;;;;;12.90;36.77;100388.59;5083967;28;20225;-69
2023/03/17 10:15:57;;;;;;;2.70;1.90;;;;;;;12.95;37.78;100383.63;5083004;28;20055;-65
2023/03/17 10:18:28;;;;;;;1.70;1.40;;;;;;;12.99;38.22;100379.66;5078535;28;20032;-70
2023/03/17 10:21:02;;;;;;;2.08;1.73;;;;;;;12.95;37.71;100386.28;5083498;28;20102;-68
2023/03/17 10:23:34;;;;;;;2.78;1.60;;;;;;;12.64;36.66;100378.88;5083152;28;20324;-67
2023/03/17 10:26:26;;;;;;;2.05;1.70;;;;;;;12.71;38.43;100373.75;5083962;28;20039;-67
2023/03/17 10:28:52;;;;;;;1.88;1.58;;;;;;;12.97;37.11;100379.81;5081065;28;20083;-67
2023/03/17 10:31:27;;;;;;;1.75;1.52;;;;;;;13.00;37.99;100383.97;5078845;28;20241;-64
2023/03/17 10:33:54;;;;;;;3.33;1.80;;;;;;;13.08;37.64;100379.50;5084219;28;20040;-67
2023/03/17 10:36:37;;;;;;;2.25;2.05;;;;;;;13.14;38.84;100382.53;5083979;28;20036;-68
2023/03/17 10:39:05;;;;;;;2.88;1.90;;;;;;;13.05;38.00;100371.88;5083696;28;20103;-65
2023/03/17 10:41:39;;;;;;;2.60;1.80;;;;;;;13.16;38.67;100377.88;5083910;28;20051;-68
2023/03/17 10:44:19;;;;;;;2.45;1.77;;;;;;;13.21;38.83;100381.75;5084332;28;20036;-63
2023/03/17 10:46:52;;;;;;;2.30;1.77;;;;;;;13.25;37.78;100380.41;5075373;28;20379;-63
2023/03/17 10:49:21;;;;;;;;;;;;;;;13.42;36.89;100378.59;5085244;28;20361;-63
2023/03/17 10:51:54;;;;;;;2.65;1.80;;;;;;;13.50;37.31;100372.47;5084310;28;20262;-68
2023/03/17 10:54:23;;;;;;;2.35;1.55;;;;;;;13.55;37.83;100362.19;5084247;28;20051;-63
2023/03/17 10:56:57;;;;;;;2.22;1.52;;;;;;;13.64;37.61;100364.69;5083993;28;20326;-67
2023/03/17 10:59:30;;;;;;;2.13;1.60;;;;;;;13.64;36.74;100367.34;5083252;28;20321;-63
2023/03/17 11:02:00;;;;;;;1.88;1.40;;;;;;;13.72;36.59;100363.84;5083563;28;20047;-67
2023/03/17 11:04:30;;;;;;;2.28;1.52;;;;;;;13.61;36.38;100370.34;5084019;28;20044;-63
2023/03/17 11:06:57;;;;;;;3.38;1.90;;;;;;;13.76;36.63;100369.66;5083217;28;20197;-68
2023/03/17 11:09:25;;;;;;;2.67;1.73;;;;;;;13.78;36.91;100363.16;5084553;28;20032;-63
2023/03/17 11:12:07;;;;;;;4.30;1.75;;;;;;;13.80;36.42;100366.50;5084460;28;20088;-67
2023/03/17 11:14:34;;;;;;;3.28;1.70;;;;;;;13.82;36.74;100371.66;5083767;28;20052;-64
2023/03/17 11:17:02;;;;;;;2.55;1.50;;;;;;;13.70;36.61;100369.34;5084349;28;20040;-63
2023/03/17 11:19:56;;;;;;;2.22;1.80;;;;;;;13.66;37.23;100362.69;5083701;28;20078;-63
2023/03/17 11:22:39;;;;;;;2.13;1.60;;;;;;;13.66;36.80;100357.34;5078519;28;20043;-64
2023/03/17 11:25:19;;;;;;;1.83;1.40;;;;;;;13.47;37.29;100354.16;5080430;28;20103;-67
2023/03/17 11:27:58;;;;;;;2.10;1.75;;;;;;;13.27;36.80;100362.47;5079933;28;20033;-63
2023/03/17 11:30:35;;;;;;;2.17;1.23;;;;;;;13.27;37.20;100356.31;5079963;28;20059;-63